Résultats de la 1ère manche du MASSI OPEN XC 2019 à Guéret(23)

Dimanche 3 Mars 2019 avait lieu la 1ère des 9 manches du MASSI OPEN XC à Guéret(23) Dans la catégorie espoirs-séniors-élites victoire du Belge Jens SCHUERMANS (Scott Creuse Oxygène Guéret). Photo ci-dessous le vainqueur avec les jeunes participants Portrait et course de ce vainqueur en cliquant ci-dessous Résultats, source site http://www.openxchallenge.com Séniors, espoirs , élites […]

Dimanche 3 Mars 2019 avait lieu la 1ère des 9 manches du MASSI OPEN XC à Guéret(23)

Dans la catégorie espoirs-séniors-élites victoire du Belge Jens SCHUERMANS (Scott Creuse Oxygène Guéret).

Photo ci-dessous le vainqueur avec les jeunes participants

Portrait et course de ce vainqueur en cliquant ci-dessous

Résultats, source site http://www.openxchallenge.com

Séniors, espoirs , élites

Clt Dos. Nom et prénom Catégorie Club Temps Écart

1 6 SCHUERMANS JENS SENIOR SCOTT CREUSE OXYGENE GUERET 1h12:25.048

2 5 LORET MAXIME SENIOR SCOTT CREUSE OXYGENE GUERET 1h13:34.025 1:08.977

3 8 LE NY BENJAMIN ESPOIR TEAM CREUSE MAINSAT EVAUX 1h14:29.883 2:04.835

4 7 GAY RAPHAEL SENIOR SCOTT CREUSE OXYGENE GUERET 1h16:19.923 3:54.875

5 10 PEYROUX HUGO ESPOIR SCOTT CREUSE OXYGENE GUERET 1h18:09.237 5:44.189

6 9 GAURIN NICOLAS SENIOR VC SAINT LÔ PONT HEBERT 1h18:38.449 6:13.401

7 1 PORTET DAMIEN SENIOR UV MAZAMET 1h19:15.700 6:50.652

8 12 VERSPIEREN PIERRE ESPOIR TEAM MADEWIS PERNES 1h19:58.635 7:33.587

9 11 CHABAUD PIERRE ESPOIR SCOTT CREUSE OXYGENE GUERET 1h21:09.479 8:44.431

10 17 BLANCHARD ARNAUD ESPOIR TEAM VENDEE VTT 1h22:04.412 9:39.364

11 26 PAROT SYLVAIN M30ELITE TEAM CREUSE MAINSAT EVAUX 1h22:18.497 9:53.449

12 19 BOUHALLIER ALEXIS ESPOIR TEAM LAVAL CYCLISME VTT 1h22:21.837 9:56.789

13 24 LEJEUNE NICOLAS M30ELITE TEAM CREUSE MAINSAT EVAUX 1h23:38.933 11:13.885

14 3 WANTELLET THIBAUT M30ELITE MONTAUBAN CYCLISME 82 1h24:10.714 11:45.666

15 45 TIXIER GUILLAUME M30ELITE AC BOURGANEUF 1h25:00.746 12:35.698

16 35 KAHLHOVEN YOAN M40ELITE CUBLAC PAR SES CHEMINS 1h25:16.213 12:51.165

17 18 BLONDET FREDERIC M30ELITE TEAM CREUSE MAINSAT EVAUX 1h25:38.438 13:13.390

18 23 DEMORIS RENAUD SENIOR TEAM LAVAL CYCLISME VTT 1h26:08.569 13:43.521

19 15 GARRIGUE ADRIEN ESPOIR VC POMPONNAIS 1h26:24.118 13:59.070

20 46 MAHE ANTOINE ESPOIR CC MARMANDE 47 1h26:29.061 14:04.013

21 62 HAY BASTIEN M30ELITE VELO SAUVAGES POITEVIN 1h26:38.249 14:13.201

22 13 BONENFANT NICOLAS ESPOIR COTE DE BEAUTE CYCLISME 1h26:38.542 14:13.494

23 27 PITARD QUENTIN SENIOR TEAM LAVAL CYCLISME VTT 1h27:48.077 15:23.029

24 56 ASQUIE JULIEN M30ELITE VTT MONTAGRIER SPORT LOISIRS 1h27:50.954 15:25.906

25 14 SERRERO BENOIT ESPOIR VTT MONTAGRIER SPORT LOISIRS 1h27:52.376 15:27.328

26 30 DOMMAIN TUDURI LAURENT M40ELITE VTT GAURIAC 1h29:41.746 17:16.698

27 38 RAMBEAU JEREMIE ESPOIR COC CYCLISME 1h30:18.684 17:53.636

28 2 LIGNERON VALENTIN ESPOIR TEAM MADEWIS PERNES 1h30:45.488 18:20.440

29 21 COUDOUIN ENGUERRAND ESPOIR TEAM CREUSE MAINSAT EVAUX 1h31:15.240 18:50.192

30 22 DA SILVA THEO ESPOIR HORIZON MONTLUCON 1h31:19.299 18:54.251

31 60 CATTAERT JONATHAN M30ELITE ACV BALLAN MIRE 1h32:48.574 20:23.526

32 40 RABIER LOIC ESPOIR CC MAINSAT EVAUX 1h33:00.377 20:35.329

33 39 GIBARD CEDRIC SENIOR CC MAINSAT EVAUX 1h33:22.297 20:57.249

34 31 DUPIN BAPTISTE ESPOIR ESCAPADE EXCITED RIDERS 1h33:30.517 21:05.469

35 4 DOURTHE MICKAEL M40ELITE CC DE L’ESTUAIRE 1h33:30.599 21:05.551

36 32 MOUGNEAU STEVEN ESPOIR VTT MONTAGRIER SPORT LOISIRS 1h35:02.771 22:37.723

37 41 BITAUDEAU CYRIL M30ELITE VTT PONTOIS 1h35:59.294 23:34.246

38 16 SARRAZIN LIONEL M40ELITE CERCLE AQUITAIN 1h36:53.018 24:27.970

39 58 DRAPERIE DORIAN ESPOIR VTTRANZAULT 1h36:59.219 24:34.171

40 33 GARRAUD SIMON ESPOIR VTT MONTAGRIER SPORT LOISIRS 1h37:18.439 24:53.391

41 44 PERAIRE NICOLAS M30ELITE 1h54:30.000 42:04.952

42 50 BECARD DAVID SENIOR MENDIXKA VTT 1h54:31.000 42:05.952

43 36 ROBERT JULIEN ESPOIR VTT MONTAGRIER SPORT LOISIRS 1h54:32.000 42:06.952

44 28 RAVEL BASTIEN ESPOIR CC MAINSAT EVAUX 1h54:33.000 42:07.952

45 42 NOUVELLON YANNICK M30ELITE UC JOUE LES TOURS 1h54:34.000 42:08.952

46 59 VEYSSIERE SEBASTIEN M30ELITE VTT ARGENTAT 1h54:35.000 42:09.952

47 25 MEZANGE BASILE ESPOIR TEAM LAVAL CYCLISME VTT 1h54:36.000 42:10.952

48 54 DRAPERIE MIGUEL M30ELITE VT TRANZAULT 1h54:37.000 42:11.952

49 20 CLAMONT ANTHONY ESPOIR TEAM CREUSE MAINSAT EVAUX 1h54:38.000 42:12.952

50 61 PERAIRE MATHIEU SENIOR LCV TONNEINS 1h54:39.000 42:13.952

51 51 GIRARD JEROME M40ELITE A.PO.GE CYCLISTE – TEAM U CUBE 1h54:40.000 42:14.952

52 34 PERNET DIT ROSSET AURELIEN ESPOIR VTT MONTAGRIER SPORT LOISIRS 1h54:41.000 42:15.952

53 43 BOUIGEAU JORIS ESPOIR ROCHECHOUART OLYMPIC CLUB CYCL 1h54:42.000 42:16.952

54 57 CHAUVET ARNAUD M40ELITE VT TRANZAULT 1h54:43.000 42:17.952

55 37 LEGER ARTHUR ESPOIR 1h54:44.000 42:18.952

56 55 RAYNAUD QUENTIN ESPOIR VC AUBUSSON 1h54:45.000 42:19.952

57 48 MICHEL TANGUY M40ELITE UC JOUE LES TOURS 1h54:46.000 42:20.952

DNF – Abandons

47 DECAS RUDY M30ELITE CLUB NEUTRE

49 LEVEAU ALEXANDRE ESPOIR CREUSE OXYGENE

52 RUSHIDOVSKI ALEN ESPOIR AMBAZAC SPRINTER CLUB

53 LAILAI AYMERIC SENIOR AC BOURGANEUF

Juniors

Clt Dos. Nom et prénom Catégorie Club Temps Écart

1 208 RIBOULET ALEX JUNIOR SCOTT CREUSE OXYGENE GUERET 57:57.490

2 210 TONNEAU MATHIS JUNIOR HORIZON MONTLUCON 59:21.564 1:24.074

3 223 VINCENT TEDDY JUNIOR RAID N TRAIL 1h00:15.861 2:18.371

4 209 TEXIER THOMAS JUNIOR LES SABLES VENDEE CYCLISME 1h01:06.143 3:08.653

5 273 ROULLEAU ADRIEN JUNIOR VS CACIEN 1h02:40.304 4:42.814

6 215 MONTHIEUX QUENTIN JUNIOR TEAM CREUSE MAINSAT EVAUX 1h03:04.761 5:07.271

7 219 PLASSIER QUENTIN JUNIOR TEAM LAVAL CYCLISME VTT 1h03:43.700 5:46.210

8 245 HOURCAUX TEVA JUNIOR COTE DE BEAUTE CYCLISME 1h03:47.665 5:50.175

9 255 ANSARD JASON JUNIOR VS CACIEN 1h04:04.507 6:07.017

10 253 BROSSE PIERRICK JUNIOR VC BESSE 1h04:34.939 6:37.449

11 243 LADET ANTOINE JUNIOR UV AUCH GG 1h04:51.918 6:54.428

12 230 ONESTI ROMARIC JUNIOR CREUSE OXYGENE 1h04:56.496 6:59.006

13 222 SOUCHON ANTONIN JUNIOR TEAM MADEWIS 1h05:33.641 7:36.151

14 217 NEAU CORENTIN JUNIOR TEAM RVC 1h05:54.569 7:57.079

15 216 DELUCHE CELESTIN JUNIOR CREUSE OXYGENE 1h06:12.795 8:15.305

16 228 CAILLIAU TAINO JUNIOR CREUSE OXYGENE 1h07:40.000 9:42.510

17 213 LABBE THIBAULT JUNIOR TEAM LAVAL CYCLISME VTT 1h07:41.186 9:43.696

18 211 ESCARMANT MARTIN M30 1h07:48.027 9:50.537

19 203 SCELO YANNICK M40 COTE DE BEAUTE CYCLISME 1h08:00.131 10:02.641

20 200 SCELO LUCAS JUNIOR COTE DE BEAUTE CYCLISME 1h09:10.322 11:12.832

21 239 BROTHIER THIERRY M50 LA PEDALE JONZACAISE 1h09:26.126 11:28.636

22 206 MEDDE ISAURE ESPOIR FILLE SCOTT CREUSE OXYGENE GUERET 1h09:53.416 11:55.926

23 232 BELANGEON JOACHIM M30 AC BOURGANEUF 1h09:55.285 11:57.795

24 202 CHANTEAU PATRICE M50 AS PERIGORD BESSEDE 1h10:04.015 12:06.525

25 276 GEITER KENTIN JUNIOR ASPTT BRIVE AGGLO 1h10:10.648 12:13.158

26 268 MADER ERIC M30 CYCLISME EN HAUT BERRY 1h10:14.514 12:17.024

27 252 BEDON HUGO JUNIOR LA PEDALE JONZACAISE 1h10:18.777 12:21.287

28 205 DUJARDIN BRICE JUNIOR SCOTT CREUSE OXYGENE GUERET 1h10:21.655 12:24.165

29 258 AMYOT RAFAEL JUNIOR ENERGY CYCLE MOZAC 1h10:33.236 12:35.746

30 235 CHAMBARD CHRISTOPHE M50 VTT ARGENTAT 1h10:38.957 12:41.467

31 269 NAMYST UGO JUNIOR VELO CUB DE BESSE 1h10:47.097 12:49.607

32 218 BENIGAUD DIDIER M40 HORIZON MONTLUCON 1h10:47.737 12:50.247

33 265 LEFEVRE LOAN JUNIOR AL LA CHAPELLE SAINT URSIN 1h10:49.418 12:51.928

34 246 LANGLOIS THEO JUNIOR COTE DE BEAUTE CYCLISME 1h10:51.637 12:54.147

35 256 BAFOUR THOMAS JUNIOR ASF VTT 1h11:57.409 13:59.919

36 283 MENUT AUDREY DAME 1h12:25.003 14:27.513

37 236 BONTEMPS THOMAS M30 1h12:27.019 14:29.529

38 278 CHOLON LAURENT M50 VT TRANZAULT 1h13:03.106 15:05.616

39 241 PORTEFAIX REMI JUNIOR AMBAZAC SPRINTER CLUB 1h13:04.402 15:06.912

40 220 TONNEAU CHRISTOPHE M50 HORIZON MONTLUCON 1h14:40.935 16:43.445

41 274 DONATO DAVID M40 ESCAPADE 1h15:18.944 17:21.454

42 234 COURRIERE CHARLES M40 A.S.P.B. 1h15:23.736 17:26.246

43 221 BLONDEAU EVAN JUNIOR CREUSE OXYGENE 1h15:28.187 17:30.697

44 272 MATHIAUD JOSSELIN M40 1h15:52.952 17:55.462

45 250 REGENT PIERRE JUNIOR U.A.LA ROCHEFOUCAULD 1h16:01.786 18:04.296

46 238 CAMINADE GUILLAUME M40 VTT MONTAGRIER SL 1h16:25.628 18:28.138

47 254 GUIDARD GWENAEL M40 VS CHAMBRAISIEN 1h16:49.999 18:52.509

48 277 MERLOT THEO JUNIOR VELOCLUB NAINTREEN 1h17:29.614 19:32.124

49 280 BIDAULT CEDRIC M40 VT TRANZAULT 1h17:57.294 19:59.804

50 247 DOMMAIN MATEO JUNIOR VTT GAURIAC 1h18:05.795 20:08.305

51 212 PECONDON ERIC M40 LES GRILLONS MASSAIS VTT 1h18:21.695 20:24.205

52 284 LOISON STEPHANE M50 1h18:30.807 20:33.317

53 244 DEGARDIN JAMES M40 SAM 1h19:24.264 21:26.774

54 201 BONNAFOUS LEA ESPOIR FILLE ESCAPADE EXCITED RIDERS 1h19:57.277 21:59.787

55 242 LANGLOIS SEBASTIEN M40 COTE DE BEAUTE CYCLISME 1h19:59.498 22:02.008

56 263 RIGONDEAU JEAN-CLAUDE M30 RVC SAINT GEORGES 1h20:02.437 22:04.947

57 275 ROUSSELLE DIDIER M40 AC COSNAC 1h20:36.895 22:39.405

58 262 PENEL STEPHANE M40 CYCLES MEDOC ESTUAIRE 1h21:15.069 23:17.579

59 226 BOUERY THOMAS JUNIOR CREUSE OXYGENE 1h21:28.686 23:31.196

60 257 BONTEMPS SIMON M30 CLUB NEUTRE 1h21:31.588 23:34.098

61 282 DUBERNARD BENJAMIN JUNIOR CC BOSMIE 1h21:38.549 23:41.059

62 251 DEVAUD BRUNO M40 CUBLAC PAR SES CHEMINS 1h21:52.151 23:54.661

63 227 BOUTHONNIER CELINE ESPOIR FILLE VTT SOURZAC 1h22:18.290 24:20.800

64 240 RODRIGUEZ GERMAIN M50 VTT ARGENTAT 1h22:31.315 24:33.825

65 237 SCOTTO CECILE DAME ASAC COLOMBIERS 1h23:21.015 25:23.525

66 279 PERRIOT NATHYS JUNIOR ALLC 1h23:33.256 25:35.766

67 281 BANAUDI ADRIEN JUNIOR VELO CLUB DE BESSE 1h23:49.313 25:51.823

68 233 THOUMELIN PHILIPPE M60 PEDAL CLUB OLERONAIS 1h24:24.914 26:27.424

69 264 PREBOST FREDERIC M40 RVC SAINT GEORGES 1h25:07.294 27:09.804

70 267 NAUDET LOIC M40 USVTT POINCONNOIT 1h25:20.163 27:22.673

71 207 POEUF CLARA ESPOIR FILLE CREUSE OXYGENE 1h25:27.325 27:29.835

72 266 KLEIN NICOLAS JUNIOR ASPB 1h27:36.011 29:38.521

73 260 CHAZALVIEL THIERRY M50 VTT HAUT LIMOUSIN 1h27:41.226 29:43.736

74 270 BARBIN PASCAL M50 VT TRANZAULT 1h28:15.025 30:17.535

75 231 LUSTENBERGER JEAN-LUC M40 VCBA 1h29:12.930 31:15.440

76 225 VIAS CAROLE DAME COTE DE BEAUTE CYCLISME 1h30:54.604 32:57.114

77 249 GUERINEAU ALAIN M40 VT TRANZAULT 1h59:50.000 1h01:52.510

78 229 BARBAN MONIQUE DAME AMBAZAC SPRINTER CLUB 2h20:20.000 1h22:22.510

79 248 CHABIRAND OLIVIER M40 INDRE VELO PASSION 11h33:38.128 10h35:40.638

DNF – Abandons

259 MARTIN CHRISTOPHE M40

271 OLIVET DIMITRI JUNIOR COC CYCLISME

Cadets

1 303 MARTINS ALEXANDRE CADET SCOTT CREUSE OXYGENE GUERET 52:10.463

2 306 PICHON HUGO CADET TEAM CREUSE MAINSAT EVAUX 52:50.085 39.622

3 307 LUSTENBERGER LEO CADET VCBA 54:07.085 1:56.622

4 300 CONGRATEL LOUIS CADET ASPTT BRIVE AGGLO VELO 54:54.542 2:44.079

5 320 DATIN ALEXIS CADET XC63 55:06.237 2:55.774

6 324 BOUTIN PAUL CADET TEAM CREUSE MAINSAT EVAUX 55:07.023 2:56.560

7 330 LAPORTE CLEMENT CADET ESCAPADE EXCITED RIDERS 56:10.928 4:00.465

8 348 TOULLIER PIERRE CADET AS FONDETTES VTT 56:41.751 4:31.288

9 311 PECONDON ROMAIN CADET CS CASTELJALOUSAIN 57:09.228 4:58.765

10 340 BAUGE TIMOTY CADET ASPTT Chateauroux 57:15.692 5:05.229

11 336 LOULIER CLEMENT CADET RAID N TRAIL 57:51.682 5:41.219

12 319 BLOC’H JORDAN CADET TEAM LAVAL CYCLISME VTT 58:00.722 5:50.259

13 350 AMYOT VINCENT CADET ENERGY CYCLE MOZAC 58:05.972 5:55.509

14 346 CERE AUGUSTE CADET ASPTT BRIVE AGGLO VELO 58:13.489 6:03.026

15 333 PAIN ETIENNE CADET TEAM RVC 58:33.049 6:22.586

16 347 TRAN VAN ANTOINE CADET AS DE FONDETTES VTT 58:54.596 6:44.133

17 328 CHEVALIER THEO CADET VC POMPONNAIS 59:16.371 7:05.908

18 338 PRADAL THIBAUT CADET VTT ARGENTAT 59:20.969 7:10.506

19 325 FLOC MICKAEL CADET PEUJARD VELO CLUB 59:38.257 7:27.794

20 318 EGISTEI LOIC CADET UC JOUE LES TOURS 1h00:21.993 8:11.530

21 344 BAUDOUIN AURIEL CADET RAID N TRAIL 1h01:27.919 9:17.456

22 317 MEYNARD MAXIME CADET CREUSE OXYGENE 1h02:21.078 10:10.615

23 312 PELISSIER VALERIAN CADET AS PERIGORD BESSEDE 1h02:42.307 10:31.844

24 308 BELLOTEAU ARNAUD CADET FREE RIDER CLUB 1h02:47.686 10:37.223

25 335 KAHLHOVEN THIBAUT CADET ASPTT BRIVE AGGLO VELO 1h02:51.466 10:41.003

26 363 TRAVERS ARTHUR CADET CREON VELO CLUB 1h02:55.474 10:45.011

27 361 VAN DEN BROEK TITOUAN CADET CREON VELO CLUB 1h02:59.775 10:49.312

28 313 DELORD ALEXANDRE CADET VELO SILEX 1h03:10.291 10:59.828

29 358 RIBERA MATHEO CADET CREON VELO CLUB 1h03:28.256 11:17.793

30 321 JAGUENEAU LEO CADET TEAM RVC 1h03:49.428 11:38.965

31 355 MOREAU FLORENT CADET AC BOURGANEUF 1h04:17.827 12:07.364

32 334 LEPEIX ENZO CADET CREUSE OXYGENE 1h04:24.690 12:14.227

33 341 CONFOLENS THOMAS CADET CREON VELO CLUB 1h04:42.640 12:32.177

34 362 VILLEMAINE PAUL CADET ASPTT BRIVE AGGLO VELO 1h05:16.850 13:06.387

35 349 GASCOU ANTHONY CADET ASPB 1h05:43.045 13:32.582

36 360 SALEM EMERIC CADET VTT EVASION POURPRE 1h05:50.582 13:40.119

37 357 PUJOL MATAHI CADET VTT EVASION POURPRE 1h05:50.766 13:40.303

38 343 FAUGERES LUCAS CADET ASPB 1h06:26.850 14:16.387

39 332 CAMINADE GABIN CADET VTT MONTAGRIER SPORTS LOISIRS 1h06:44.527 14:34.064

40 351 ARMAND CLEMENT CADET VTT MIAULETOU 1h07:22.516 15:12.053

41 327 COTTIER-WEMAERE JOSEPH CADET TEAM RVC 1h08:33.283 16:22.820

42 331 ENDRIVET CELIEN CADET XC63 1h08:42.481 16:32.018

43 356 OUZEAU LUCAS CADET CUBLAC PAR SES CHEMINS 1h09:10.317 16:59.854

44 352 BRAS STEVE CADET COC CYCLISME 1h09:10.953 17:00.490

45 314 CHICAUD MATHIEU CADET CREUSE OXYGENE 1h09:59.346 17:48.883

46 326 BAHLOUL SAMI CADET VC POMPONNAIS 1h10:13.545 18:03.082

47 359 ROUGIE MAXIME CADET U.C. BRIVISTE 1h10:27.887 18:17.424

48 353 CAFFY THOMAS CADET ENERGY CYCLE MOZAC 1h14:01.195 21:50.732

49 323 LARDELLIER REMI CADET CREUSE OXYGENE 1h15:19.776 23:09.313

50 354 JOURDAN HUGO CADET CREON VELO CLUB 1h17:34.915 25:24.452

51 337 ARCANGER NICOLAS CADET CREUSE OXYGENE 1h19:17.065 27:06.602

DNF – Abandons

329 LAMARE MAYANN CADET CREUSE OXYGENE

339 NERINCKX MATHEO CADET CREUSE OXYGENE

342 LAMONGE MATHIEU CADET AMBAZAC SPRINTER CLUB

345 RAISON THIBAUD CADET COTE DE BEAUTE CYCLISME

 Catégorie : CADETTE

1 305 ONESTI OLIVIA CADETTE SCOTT CREUSE OXYGENE GUERET 56:48.660

2 304 FABREGUE LILOU CADETTE SCOTT CREUSE OXYGENE GUERET 59:38.032 2:49.372

3 301 MULLER EVA CADETTE ESCAPADE EXCITED RIDERS 1h12:06.731 15:18.071

4 310 LOZACH EMMA CADETTE EXCITED RIDERS 1h15:20.651 18:31.991

5 315 ROULET LAURA CADETTE BRIANCE ROSELLE AVENTURE 1h24:50.100 28:01.440

6 316 TIXIER MAELLE CADETTE AVENIR CYCLISTE DE BOURGANEUF 1h31:50.100 35:01.440

 Catégorie : JUNIOR FILLE

1 302 CHICAUD MANON JUNIOR FILLE CREUSE OXYGENE 1h16:46.274

2 309 DEBRAY EMELYNE JUNIOR FILLE AC BOURGANEUF 1h21:50.100 5:03.826

Minimes

1 402 JOINEL TRYSTAN MINIME VELO SILEX 38:37.377

2 403 DONATO ENZO MINIME EXCITED RIDERS 39:30.935 53.558

3 446 ANDRE MARIUS MINIME VTT ESTUAIRE CLUB GAURIAC 39:46.522 1:09.145

4 421 PIGNOL KILLIAN MINIME XC 63 40:15.854 1:38.477

5 432 DEVEAU MARTIN MINIME ASPTT BRIVE AGGLO VELO 41:04.130 2:26.753

6 436 GOUSSET PIERRE-OLIVIER MINIME VELO SILEX 41:04.837 2:27.460

7 406 ONESTI THOMAS MINIME CREUSE OXYGENE 41:22.044 2:44.667

8 427 BERGAUD SACHA MINIME AC CUSSET 41:25.279 2:47.902

9 404 WALKER EMILE MINIME OLORON O BEARN SPORT NATURE 42:00.563 3:23.186

10 442 ROUSSELLE NATHAN MINIME ASPTT BRIVE AGGLO VELO 42:30.452 3:53.075

11 400 STROBBE KEVIN MINIME MONTAGRIER 42:51.493 4:14.116

12 418 PENEL MARVIN MINIME CYCLES MEDOC ESTUAIRE 42:51.504 4:14.127

13 416 ABRIVARD ARTHUR MINIME VTT ESTUAIRE CLUB GAURIAC 43:46.816 5:09.439

14 429 SANCIAUT ZIAN MINIME XC 63 44:09.949 5:32.572

15 405 PIGNOT NATAN MINIME CREUSE OXYGENE 44:54.811 6:17.434

16 409 CALONNE VICTORIO MINIME CREUSE OXYGENE 45:06.601 6:29.224

17 439 MATHE MARVIN MINIME VCCO LA ROCHELLE 45:18.427 6:41.050

18 408 LEYLAVERGNE DARIO MINIME CREUSE OXYGENE 45:42.150 7:04.773

19 441 PIGNON PAULIN MINIME ASAC COLOMBIERS 46:02.176 7:24.799

20 433 DOURTHE VICTOR MINIME CC DE L’ESTUAIRE 46:49.225 8:11.848

21 438 MARIDET MATHIEU MINIME AVENIR CYCLISTE DE BOURGANEUF 47:33.291 8:55.914

22 434 GAILLARD FLORIAN MINIME US ARGENTONNAISE 48:19.157 9:41.780

23 430 TREHIN MATHIAS MINIME INDRE VELO PASSION 48:39.729 10:02.352

24 407 LABROT ETIENNE MINIME CREUSE OXYGENE 48:45.116 10:07.739

25 412 BOUYSSOU LUKA MINIME VELO SILEX 49:31.155 10:53.778

26 419 GABRIEL-LANG MATHYS MINIME CREUSE OXYGENE 49:36.069 10:58.692

27 423 BAREIGE THIBAULT MINIME ASPTT BRIVE AGGLO VELO 49:41.301 11:03.924

28 443 TIXIER ANTONIN MINIME AVENIR CYCLISTE DE BOURGANEUF 49:52.460 11:15.083

29 410 GANE ENZO MINIME CREUSE OXYGENE 50:35.635 11:58.258

30 425 ETIENNE BAPTISTE MINIME VTT EVASION POURPRE 50:51.749 12:14.372

31 422 BERTRET LEO MINIME U.C.C.VIVONNE 50:59.004 12:21.627

32 437 MALARD MAXIME MINIME VELO SILEX 51:19.205 12:41.828

33 440 PERROTIN NATHAN MINIME U.C.C.VIVONNE 52:02.586 13:25.209

34 414 CAPTON MAXIMILIEN MINIME CREUSE OXYGENE 52:23.609 13:46.232

35 431 DELBOS JORIS MINIME VELO SILEX 52:54.409 14:17.032

36 445 DELHOUME JULES MINIME ELAN CYCLISTE AMBAZAC 53:08.207 14:30.830

37 435 LE MAUX CASSANDRE MINIME UV POITIERS 59:38.555 21:01.178

38 428 BIRAUD MATHEO MINIME AC NIEUL LES SAINTES 59:39.077 21:01.700

39 426 BENIGAUD RAPHAEL MINIME TEAM CYCLISTE MONTLUCON 1h11:39.170 33:01.793

40 447 RIO GRISET JULIEN MINIME CREUSE OXYGENE 1h36:54.568 58:17.191

DNF – Abandons

417 BOUBET AIT LARBI JULES MINIME CREUSE OXYGENE

420 MILLARD JEEVAN MINIME CREUSE OXYGENE

424 HERNANDEZ THOMAS MINIME CREUSE OXYGENE

 Catégorie : MINIME FILLE

1 413 COUDOUIN EDEN MINIME FILLE FREE RIDER CLUB 45:07.042

2 411 VANDEPUTTE JUSTINE MINIME FILLE ECVA 53:52.007 8:44.965

3 415 HAMELIN JULIETTE MINIME FILLE ASPTT BRIVE AGGLO VELO 54:16.909 9:09.867

4 401 PORTMANN NOEMIE MINIME FILLE VT TRANZAULT 1h14:34.383 29:27.341

0 Commentaire

Laisser un commentaire

Articles récents

Toutes les news du mois

CYCLE&RUNNING E.LECLERC à MARMANDE

Commentaires récents

Faire une donation

Sud Gironde - CYCLISME a besoin de votre générosité. Pourquoi ?

Rejoignez-nous !